Time;durP1;ratioP1;P1;durP2;ratioP2;P2;SDS_P1;SDS_P2;PMS_P1;PMS_P2;Temp;Humidity;BMP_temperature;BMP_pressure;BME280_temperature;BME280_humidity;BME280_pressure;Samples;Min_cycle;Max_cycle;Signal;HPM_P1;HPM_P2
2021/05/25 00:00:34;;;;;;;1.27;0.75;;;;;;;9.03;nan;100327.88;5094346;28;20039;-77
2021/05/25 00:03:02;;;;;;;2.85;1.10;;;;;;;9.04;nan;100328.72;5094982;28;20028;-77
2021/05/25 00:05:29;;;;;;;1.40;0.90;;;;;;;9.07;nan;100325.78;5093628;28;20036;-78
2021/05/25 00:07:55;;;;;;;1.70;0.80;;;;;;;9.08;nan;100330.09;5070391;28;20037;-77
2021/05/25 00:10:28;;;;;;;1.58;1.00;;;;;;;9.10;nan;100331.59;5082126;28;20189;-78
2021/05/25 00:12:55;;;;;;;2.33;0.88;;;;;;;9.10;nan;100336.88;5089680;28;20056;-77
2021/05/25 00:15:24;;;;;;;3.65;0.93;;;;;;;9.16;nan;100339.91;5086610;28;20033;-77
2021/05/25 00:17:49;;;;;;;2.40;0.70;;;;;;;9.16;nan;100332.00;5092752;28;20043;-78
2021/05/25 00:20:17;;;;;;;3.15;0.80;;;;;;;9.17;nan;100339.75;5095482;28;20032;-77
2021/05/25 00:22:43;;;;;;;3.55;0.73;;;;;;;9.25;nan;100331.94;5064421;28;20479;-77
2021/05/25 00:25:10;;;;;;;2.17;0.70;;;;;;;9.25;nan;100339.03;5079554;28;20028;-77
2021/05/25 00:27:36;;;;;;;1.30;0.70;;;;;;;9.28;nan;100333.47;5077638;28;20398;-78
2021/05/25 00:30:04;;;;;;;1.77;0.70;;;;;;;9.30;nan;100340.25;5077801;28;20029;-77
2021/05/25 00:32:30;;;;;;;1.10;0.70;;;;;;;9.35;nan;100338.00;5079991;28;20046;-77
2021/05/25 00:34:55;;;;;;;1.90;0.80;;;;;;;9.36;nan;100331.72;5096477;28;20404;-78
2021/05/25 00:37:20;;;;;;;2.25;0.80;;;;;;;9.35;nan;100330.06;5090645;28;20058;-77
2021/05/25 00:39:46;;;;;;;1.77;0.70;;;;;;;9.41;nan;100330.44;5075273;28;20114;-77
2021/05/25 00:42:11;;;;;;;2.72;0.90;;;;;;;9.38;nan;100322.84;5085138;28;20074;-77
2021/05/25 00:44:36;;;;;;;1.67;0.73;;;;;;;9.40;nan;100321.72;5081873;28;20028;-77
2021/05/25 00:47:02;;;;;;;1.35;0.70;;;;;;;9.38;nan;100321.03;5084297;28;20040;-77
2021/05/25 00:49:27;;;;;;;1.02;0.60;;;;;;;9.40;nan;100320.88;5078796;28;20051;-76
2021/05/25 00:51:52;;;;;;;2.60;0.70;;;;;;;9.40;nan;100320.88;5094290;28;20442;-76
2021/05/25 00:54:18;;;;;;;2.17;0.60;;;;;;;9.42;nan;100324.22;5071160;28;20616;-75
2021/05/25 00:56:43;;;;;;;1.35;0.68;;;;;;;9.44;nan;100312.53;5091251;28;20501;-79
2021/05/25 00:59:09;;;;;;;1.75;0.75;;;;;;;9.38;nan;100315.75;5092622;28;20056;-76
2021/05/25 01:01:34;;;;;;;1.63;0.70;;;;;;;9.47;nan;100316.66;5090761;28;20035;-76
2021/05/25 01:04:00;;;;;;;0.77;0.60;;;;;;;9.48;nan;100318.31;5094242;28;20393;-76
2021/05/25 01:06:25;;;;;;;3.58;1.10;;;;;;;9.47;nan;100322.78;5086876;28;20084;-76
2021/05/25 01:08:51;;;;;;;2.42;0.77;;;;;;;9.51;nan;100321.50;5094723;28;20047;-77
2021/05/25 01:11:18;;;;;;;1.40;0.70;;;;;;;9.51;nan;100318.00;5080530;28;20099;-77
2021/05/25 01:13:50;;;;;;;2.88;0.80;;;;;;;9.49;nan;100320.81;5075305;28;20040;-77
2021/05/25 01:16:16;;;;;;;1.95;0.68;;;;;;;9.48;nan;100320.97;5090518;28;20047;-77
2021/05/25 01:18:42;;;;;;;2.45;0.60;;;;;;;9.53;nan;100327.47;5075841;28;20096;-77
2021/05/25 01:21:10;;;;;;;1.88;0.73;;;;;;;9.51;nan;100316.22;5087638;28;20040;-77
2021/05/25 01:23:37;;;;;;;1.58;0.98;;;;;;;9.53;nan;100322.19;5090029;28;20028;-77
2021/05/25 01:26:04;;;;;;;0.98;0.60;;;;;;;9.55;nan;100322.84;5090331;28;20028;-77
2021/05/25 01:28:29;;;;;;;2.47;0.73;;;;;;;9.56;nan;100319.25;5092602;28;20044;-77
2021/05/25 01:30:56;;;;;;;2.33;0.80;;;;;;;9.50;nan;100311.91;5078089;28;20037;-77
2021/05/25 01:33:29;;;;;;;2.63;0.60;;;;;;;9.55;nan;100307.00;5082200;28;20039;-77
2021/05/25 01:35:55;;;;;;;4.40;0.80;;;;;;;9.54;nan;100308.00;5059663;28;20036;-77
2021/05/25 01:38:22;;;;;;;2.35;0.75;;;;;;;9.48;nan;100310.41;5092092;28;20033;-77
2021/05/25 01:40:49;;;;;;;1.02;0.68;;;;;;;9.49;nan;100310.25;5088118;28;20036;-77
2021/05/25 01:43:15;;;;;;;2.05;0.60;;;;;;;9.36;nan;100315.06;5093100;28;20073;-76
2021/05/25 01:45:41;;;;;;;1.73;0.80;;;;;;;9.36;nan;100313.25;5073101;28;20032;-77
2021/05/25 01:48:10;;;;;;;1.70;0.70;;;;;;;9.39;nan;100311.28;5091946;28;20029;-76
2021/05/25 01:50:37;;;;;;;1.85;0.85;;;;;;;9.35;nan;100319.53;5085905;28;20028;-76
2021/05/25 01:53:06;;;;;;;1.77;0.70;;;;;;;9.37;nan;100319.38;5075410;28;20036;-77
2021/05/25 01:55:38;;;;;;;2.70;0.82;;;;;;;9.39;nan;100325.34;5079457;28;20054;-76
2021/05/25 01:58:06;;;;;;;2.20;0.85;;;;;;;9.37;nan;100316.75;5089440;28;20086;-77
2021/05/25 02:00:32;;;;;;;2.13;1.05;;;;;;;9.36;nan;100322.97;5062562;28;20028;-76
2021/05/25 02:02:58;;;;;;;2.38;0.73;;;;;;;9.35;nan;100321.34;5073451;28;20037;-76
2021/05/25 02:05:23;;;;;;;2.75;1.25;;;;;;;9.37;nan;100327.28;5081643;28;20043;-76
2021/05/25 02:07:51;;;;;;;2.92;0.75;;;;;;;9.29;nan;100328.00;5090103;28;20036;-76
2021/05/25 02:10:41;;;;;;;2.65;0.80;;;;;;;9.28;nan;100334.28;5071293;28;20043;-78
2021/05/25 02:13:10;;;;;;;1.35;0.80;;;;;;;9.24;nan;100330.28;5082260;28;20538;-76
2021/05/25 02:15:36;;;;;;;1.00;0.55;;;;;;;9.22;nan;100337.50;5075168;28;20040;-76
2021/05/25 02:18:11;;;;;;;1.52;0.55;;;;;;;9.19;nan;100327.25;5084407;28;20050;-77
2021/05/25 02:20:38;;;;;;;8.38;0.95;;;;;;;9.23;nan;100339.19;5092230;28;20028;-77
2021/05/25 02:23:04;;;;;;;2.20;0.90;;;;;;;9.18;nan;100340.59;5091564;28;20032;-77
2021/05/25 02:25:29;;;;;;;2.13;0.50;;;;;;;9.20;nan;100333.34;5077564;28;20107;-76
2021/05/25 02:27:55;;;;;;;1.58;0.80;;;;;;;9.14;nan;100334.78;5070255;28;20037;-77
2021/05/25 02:30:21;;;;;;;1.30;0.70;;;;;;;9.12;nan;100337.56;5077004;28;20040;-77
2021/05/25 02:32:47;;;;;;;5.10;0.95;;;;;;;9.10;nan;100334.22;5089671;28;20028;-77
2021/05/25 02:35:13;;;;;;;2.17;0.80;;;;;;;9.07;nan;100334.53;5096683;28;20085;-77
2021/05/25 02:37:38;;;;;;;3.25;0.82;;;;;;;9.13;nan;100331.31;5076011;28;20300;-78
2021/05/25 02:40:05;;;;;;;2.03;0.73;;;;;;;9.14;nan;100334.78;5083383;28;20029;-77
2021/05/25 02:42:31;;;;;;;2.08;0.85;;;;;;;9.16;nan;100337.28;5089801;28;20039;-76
2021/05/25 02:44:56;;;;;;;1.23;0.63;;;;;;;9.07;nan;100334.53;5086644;28;20037;-76
2021/05/25 02:47:21;;;;;;;2.28;0.70;;;;;;;9.07;nan;100333.72;5083269;28;20043;-76
2021/05/25 02:49:47;;;;;;;0.82;0.47;;;;;;;9.07;nan;100336.34;5081434;28;20047;-79
2021/05/25 02:52:13;;;;;;;2.80;0.65;;;;;;;9.10;nan;100349.22;5065863;28;20037;-77
2021/05/25 02:54:39;;;;;;;1.98;0.90;;;;;;;9.13;nan;100341.88;5087351;28;20029;-76
2021/05/25 02:57:04;;;;;;;3.00;0.98;;;;;;;9.13;nan;100351.59;5088993;28;20408;-77
2021/05/25 02:59:30;;;;;;;3.75;1.10;;;;;;;9.15;nan;100349.63;5093309;28;20031;-76
2021/05/25 03:01:55;;;;;;;2.88;0.90;;;;;;;9.13;nan;100349.78;5093481;28;20050;-76
2021/05/25 03:04:22;;;;;;;2.85;0.95;;;;;;;9.10;nan;100350.06;5074875;28;20063;-76
2021/05/25 03:06:47;;;;;;;2.65;1.10;;;;;;;9.14;nan;100356.72;5093484;28;20602;-76
2021/05/25 03:09:12;;;;;;;2.78;0.95;;;;;;;9.20;nan;100365.00;5093481;28;20047;-76
2021/05/25 03:11:38;;;;;;;2.22;1.02;;;;;;;9.13;nan;100355.06;5093325;28;20032;-76
2021/05/25 03:14:04;;;;;;;3.20;1.00;;;;;;;9.18;nan;100351.97;5092603;28;20048;-76
2021/05/25 03:16:29;;;;;;;6.18;1.10;;;;;;;9.20;nan;100355.31;5091663;28;20040;-76
2021/05/25 03:18:55;;;;;;;2.47;0.93;;;;;;;9.20;nan;100357.09;5092450;28;20038;-76
2021/05/25 03:21:20;;;;;;;3.25;1.25;;;;;;;9.18;nan;100364.34;5090784;28;20424;-76
2021/05/25 03:23:46;;;;;;;4.38;1.10;;;;;;;9.17;nan;100367.94;5092056;28;20047;-76
2021/05/25 03:26:11;;;;;;;4.30;0.90;;;;;;;9.14;nan;100366.44;5093968;28;20035;-76
2021/05/25 03:28:37;;;;;;;2.60;0.80;;;;;;;9.14;nan;100369.91;5089620;28;20484;-76
2021/05/25 03:31:03;;;;;;;2.78;0.80;;;;;;;9.20;nan;100368.50;5089977;28;20036;-77
2021/05/25 03:33:28;;;;;;;2.28;0.73;;;;;;;9.20;nan;100367.66;5077651;28;20362;-76
2021/05/25 03:35:53;;;;;;;2.95;0.70;;;;;;;9.23;nan;100372.66;5072426;28;20036;-76
2021/05/25 03:38:19;;;;;;;2.35;0.70;;;;;;;9.25;nan;100378.63;5073455;28;20132;-76
2021/05/25 03:40:44;;;;;;;2.58;0.85;;;;;;;9.24;nan;100375.13;5088756;28;20028;-76
2021/05/25 03:43:10;;;;;;;2.20;0.82;;;;;;;9.20;nan;100371.13;5092846;28;20040;-75
2021/05/25 03:45:35;;;;;;;2.38;0.65;;;;;;;9.28;nan;100373.03;5093711;28;20079;-75
2021/05/25 03:48:00;;;;;;;1.05;0.70;;;;;;;9.30;nan;100377.19;5093157;28;20400;-76
2021/05/25 03:50:26;;;;;;;2.63;0.70;;;;;;;9.25;nan;100379.44;5092628;28;20043;-76
2021/05/25 03:52:56;;;;;;;3.90;0.90;;;;;;;9.30;nan;100387.75;5093352;28;20169;-77
2021/05/25 03:55:43;;;;;;;3.13;0.95;;;;;;;9.31;nan;100394.66;5093656;28;20397;-76
2021/05/25 04:00:54;;;;;;;3.33;0.88;;;;;;;9.30;nan;100394.84;5093273;28;20081;-76
2021/05/25 04:03:20;;;;;;;1.17;0.60;;;;;;;9.31;nan;100396.47;5074262;28;20024;-77
2021/05/25 04:05:46;;;;;;;1.95;0.80;;;;;;;9.31;nan;100393.84;5093176;28;20036;-76
2021/05/25 04:08:11;;;;;;;1.80;0.70;;;;;;;9.32;nan;100400.81;5091815;28;20595;-76
2021/05/25 04:10:37;;;;;;;3.60;0.95;;;;;;;9.24;nan;100388.31;5074657;28;20048;-76
2021/05/25 04:13:03;;;;;;;1.42;0.70;;;;;;;9.30;nan;100394.84;5092935;28;20561;-77
2021/05/25 04:15:28;;;;;;;2.60;1.02;;;;;;;9.27;nan;100389.81;5092792;28;20118;-75
2021/05/25 04:17:54;;;;;;;2.03;0.80;;;;;;;9.32;nan;100396.34;5092392;28;20496;-76
2021/05/25 04:20:21;;;;;;;2.47;1.02;;;;;;;9.28;nan;100392.34;5092282;28;20050;-76
2021/05/25 04:22:46;;;;;;;2.58;0.80;;;;;;;9.29;nan;100401.91;5092590;28;20040;-76
2021/05/25 04:25:13;;;;;;;5.75;1.20;;;;;;;9.33;nan;100397.16;5092701;28;20031;-75
2021/05/25 04:27:38;;;;;;;2.13;0.77;;;;;;;9.29;nan;100395.78;5092599;28;20035;-77
2021/05/25 04:30:07;;;;;;;2.22;0.82;;;;;;;9.31;nan;100412.31;5093318;28;20032;-76
2021/05/25 04:32:33;;;;;;;1.75;0.70;;;;;;;9.32;nan;100406.06;5073657;28;20458;-76
2021/05/25 04:34:58;;;;;;;1.92;0.70;;;;;;;9.34;nan;100410.22;5092957;28;20060;-76
2021/05/25 04:37:24;;;;;;;2.38;0.70;;;;;;;9.33;nan;100407.72;5091826;28;20024;-76
2021/05/25 04:39:49;;;;;;;2.47;0.70;;;;;;;9.31;nan;100412.31;5092397;28;20065;-76
2021/05/25 04:42:14;;;;;;;2.67;0.93;;;;;;;9.41;nan;100414.91;5072082;28;20538;-77
2021/05/25 04:44:40;;;;;;;1.52;0.80;;;;;;;9.34;nan;100415.50;5077915;28;20039;-76
2021/05/25 04:47:05;;;;;;;3.10;0.95;;;;;;;9.34;nan;100398.81;5093113;28;20032;-76
2021/05/25 04:49:33;;;;;;;4.55;0.90;;;;;;;9.38;nan;100405.47;5077125;28;20048;-76
2021/05/25 04:51:58;;;;;;;1.67;0.70;;;;;;;9.40;nan;100411.44;5087777;28;20512;-76
2021/05/25 04:54:23;;;;;;;2.45;0.73;;;;;;;9.42;nan;100404.22;5072153;28;20046;-76
2021/05/25 04:56:50;;;;;;;2.33;0.75;;;;;;;9.41;nan;100413.09;5074191;28;20512;-76
2021/05/25 04:59:16;;;;;;;1.13;0.70;;;;;;;9.46;nan;100407.38;5090669;28;20036;-76
2021/05/25 05:01:41;;;;;;;2.10;0.70;;;;;;;9.52;nan;100412.91;5077907;28;20251;-76
2021/05/25 05:04:06;;;;;;;2.38;0.90;;;;;;;9.53;nan;100425.13;5072089;28;20370;-76
2021/05/25 05:06:32;;;;;;;2.47;1.00;;;;;;;9.54;nan;100420.69;5073110;28;20029;-76
2021/05/25 05:08:57;;;;;;;3.25;0.98;;;;;;;9.66;nan;100423.94;5092169;28;20405;-76
2021/05/25 05:11:22;;;;;;;1.52;0.70;;;;;;;9.57;nan;100421.19;5091688;28;20088;-76
2021/05/25 05:13:48;;;;;;;2.38;0.80;;;;;;;9.59;nan;100423.69;5077427;28;20321;-76
2021/05/25 05:16:13;;;;;;;1.20;0.70;;;;;;;9.63;nan;100426.84;5076954;28;20081;-76
2021/05/25 05:18:38;;;;;;;1.30;0.65;;;;;;;9.57;nan;100426.47;5088434;28;20135;-76
2021/05/25 05:21:04;;;;;;;2.45;0.80;;;;;;;9.59;nan;100428.97;5073169;28;20069;-76
2021/05/25 05:23:29;;;;;;;2.38;0.90;;;;;;;9.56;nan;100426.66;5085678;28;20054;-77
2021/05/25 05:25:55;;;;;;;1.10;0.60;;;;;;;9.50;nan;100430.69;5093642;28;20136;-77
2021/05/25 05:28:20;;;;;;;1.95;0.80;;;;;;;9.47;nan;100436.25;5092798;28;20789;-76
2021/05/25 05:30:46;;;;;;;2.15;0.82;;;;;;;9.47;nan;100436.25;5087336;28;20051;-76
2021/05/25 05:33:11;;;;;;;2.47;0.90;;;;;;;9.56;nan;100426.66;5072169;28;20033;-76
2021/05/25 05:35:36;;;;;;;2.05;0.80;;;;;;;9.54;nan;100433.88;5070486;28;20520;-76
2021/05/25 05:38:02;;;;;;;3.15;0.82;;;;;;;9.55;nan;100440.81;5089583;28;20060;-76
2021/05/25 05:40:27;;;;;;;3.25;0.90;;;;;;;9.57;nan;100442.31;5092012;28;20039;-76
2021/05/25 05:42:53;;;;;;;3.22;1.00;;;;;;;9.57;nan;100442.31;5093318;28;20093;-76
2021/05/25 05:45:20;;;;;;;2.85;1.20;;;;;;;9.55;nan;100438.16;5092397;28;20059;-76
2021/05/25 05:47:46;;;;;;;2.08;0.85;;;;;;;9.50;nan;100441.25;5079095;28;20310;-76
2021/05/25 05:50:12;;;;;;;1.65;0.85;;;;;;;9.54;nan;100439.16;5071732;28;20087;-76
2021/05/25 05:52:38;;;;;;;2.58;0.90;;;;;;;9.62;nan;100439.25;5079550;28;20038;-76
2021/05/25 05:55:05;;;;;;;2.35;0.70;;;;;;;9.59;nan;100444.81;5094367;28;20066;-76
2021/05/25 05:57:30;;;;;;;4.15;1.00;;;;;;;9.61;nan;100442.03;5080613;28;20036;-76
2021/05/25 05:59:55;;;;;;;2.25;1.00;;;;;;;9.66;nan;100445.06;5070919;28;20047;-76
2021/05/25 06:02:21;;;;;;;2.08;1.02;;;;;;;9.74;nan;100463.63;5055293;28;20443;-76
2021/05/25 06:04:46;;;;;;;2.25;0.90;;;;;;;9.82;nan;100454.97;5091175;28;20040;-77
2021/05/25 06:07:11;;;;;;;2.75;1.00;;;;;;;9.86;nan;100456.34;5091531;28;20057;-76
2021/05/25 06:09:37;;;;;;;2.30;0.80;;;;;;;9.92;nan;100461.84;5090325;28;20401;-76
2021/05/25 06:12:03;;;;;;;2.08;0.77;;;;;;;9.90;nan;100450.59;5074169;28;20313;-76
2021/05/25 06:14:28;;;;;;;2.03;0.80;;;;;;;9.82;nan;100450.53;5090151;28;20032;-75
2021/05/25 06:16:54;;;;;;;2.05;0.88;;;;;;;9.81;nan;100453.31;5090328;28;20028;-76
2021/05/25 06:19:19;;;;;;;3.08;0.90;;;;;;;9.89;nan;100458.66;5071928;28;20497;-76
2021/05/25 06:21:45;;;;;;;4.65;0.98;;;;;;;9.90;nan;100460.34;5072803;28;20039;-76
2021/05/25 06:24:13;;;;;;;2.40;0.77;;;;;;;9.88;nan;100463.13;5087899;28;20040;-77
2021/05/25 06:26:38;;;;;;;3.30;0.80;;;;;;;9.95;nan;100466.84;5087975;28;20040;-76
2021/05/25 06:29:03;;;;;;;3.28;1.05;;;;;;;9.92;nan;100467.13;5070846;28;20044;-75
2021/05/25 06:31:29;;;;;;;3.00;0.88;;;;;;;9.72;nan;100468.22;5071342;28;20043;-76
2021/05/25 06:33:54;;;;;;;4.10;0.93;;;;;;;9.65;nan;100475.06;5060704;28;20090;-76
2021/05/25 06:36:19;;;;;;;2.53;1.10;;;;;;;9.52;nan;100492.09;5071788;28;20564;-75
2021/05/25 06:38:45;;;;;;;1.85;0.80;;;;;;;9.41;nan;100484.34;5090321;28;20768;-76
2021/05/25 06:41:10;;;;;;;2.20;0.93;;;;;;;9.31;nan;100488.84;5080273;28;20529;-76
2021/05/25 06:43:35;;;;;;;2.25;0.70;;;;;;;9.32;nan;100496.63;5051816;28;20044;-76
2021/05/25 06:46:01;;;;;;;3.28;0.95;;;;;;;9.32;nan;100499.25;5085736;28;20036;-76
2021/05/25 06:48:26;;;;;;;1.45;0.60;;;;;;;9.33;nan;100497.44;5085532;28;20037;-76
2021/05/25 06:50:51;;;;;;;2.75;0.70;;;;;;;9.50;nan;100504.59;5069886;28;20120;-76
2021/05/25 06:53:17;;;;;;;1.70;0.63;;;;;;;9.52;nan;100494.72;5079906;28;20049;-76
2021/05/25 06:55:42;;;;;;;4.30;0.95;;;;;;;9.61;nan;100497.47;5089808;28;20111;-76
2021/05/25 06:58:08;;;;;;;1.55;0.70;;;;;;;9.64;nan;100499.81;5089120;28;20385;-77
2021/05/25 07:00:33;;;;;;;3.97;0.90;;;;;;;9.62;nan;100507.06;5069321;28;20032;-76
2021/05/25 07:02:58;;;;;;;2.20;1.00;;;;;;;9.67;nan;100500.34;5077492;28;20040;-76
2021/05/25 07:05:24;;;;;;;2.65;1.00;;;;;;;9.78;nan;100501.97;5071891;28;20036;-76
2021/05/25 07:07:50;;;;;;;2.45;0.80;;;;;;;9.88;nan;100515.94;5089300;28;20532;-76
2021/05/25 07:10:15;;;;;;;1.85;0.90;;;;;;;9.79;nan;100506.25;5069865;28;20512;-75
2021/05/25 07:12:40;;;;;;;2.42;0.70;;;;;;;9.70;nan;100515.06;5075206;28;20028;-76
2021/05/25 07:15:07;;;;;;;2.35;0.70;;;;;;;9.70;nan;100517.69;5089399;28;20032;-76
2021/05/25 07:17:32;;;;;;;2.72;0.85;;;;;;;9.72;nan;100513.09;5091497;28;20093;-76
2021/05/25 07:19:57;;;;;;;2.63;0.75;;;;;;;9.72;nan;100518.38;5074658;28;20035;-75
2021/05/25 07:22:23;;;;;;;2.88;1.08;;;;;;;9.73;nan;100517.44;5073551;28;20028;-76
2021/05/25 07:24:49;;;;;;;3.03;0.90;;;;;;;9.55;nan;100517.34;5060062;28;20063;-76
2021/05/25 07:27:15;;;;;;;2.95;0.80;;;;;;;9.59;nan;100523.19;5082806;28;20173;-76
2021/05/25 07:29:40;;;;;;;2.80;0.90;;;;;;;9.47;nan;100525.19;5092357;28;20502;-76
2021/05/25 07:32:06;;;;;;;1.75;0.80;;;;;;;9.36;nan;100528.81;5091756;28;20089;-76
2021/05/25 07:34:31;;;;;;;2.17;0.80;;;;;;;9.37;nan;100522.59;5072661;28;20044;-76
2021/05/25 07:36:57;;;;;;;3.63;0.90;;;;;;;9.26;nan;100528.84;5080729;28;20141;-76
2021/05/25 07:39:22;;;;;;;5.35;1.10;;;;;;;9.36;nan;100527.00;5092450;28;20036;-75
2021/05/25 07:41:48;;;;;;;2.65;1.20;;;;;;;9.32;nan;100525.66;5059982;28;20493;-76
2021/05/25 07:44:13;;;;;;;3.15;0.90;;;;;;;9.34;nan;100536.91;5055978;28;20032;-78
2021/05/25 07:46:39;;;;;;;3.67;1.13;;;;;;;9.44;nan;100536.88;5093261;28;20538;-76
2021/05/25 07:49:05;;;;;;;2.55;0.90;;;;;;;9.45;nan;100527.13;5083889;28;20070;-76
2021/05/25 07:51:30;;;;;;;2.55;0.93;;;;;;;9.51;nan;100543.22;5073050;28;20115;-76
2021/05/25 07:53:57;;;;;;;1.48;0.70;;;;;;;9.53;nan;100543.06;5088461;28;20036;-75
2021/05/25 07:56:22;;;;;;;1.83;0.70;;;;;;;9.59;nan;100539.03;5092996;28;20036;-77
2021/05/25 07:58:48;;;;;;;1.65;0.60;;;;;;;9.62;nan;100552.75;5068379;28;20382;-76
2021/05/25 08:01:13;;;;;;;2.83;0.80;;;;;;;9.69;nan;100553.03;5073037;28;20122;-76
2021/05/25 08:03:39;;;;;;;1.75;0.70;;;;;;;9.75;nan;100548.00;5072968;28;20060;-77
2021/05/25 08:06:04;;;;;;;3.45;0.70;;;;;;;9.91;nan;100544.69;5055446;28;20119;-77
2021/05/25 08:08:30;;;;;;;1.95;1.00;;;;;;;9.98;nan;100550.22;5093081;28;20036;-76
2021/05/25 08:10:57;;;;;;;0.88;0.50;;;;;;;9.96;nan;100555.69;5094106;28;20042;-76
2021/05/25 08:13:22;;;;;;;2.25;0.80;;;;;;;10.03;nan;100553.25;5094950;28;20036;-76
2021/05/25 08:15:49;;;;;;;1.38;0.60;;;;;;;10.05;nan;100550.47;5095177;28;20399;-76
2021/05/25 08:18:35;;;;;;;1.17;0.50;;;;;;;10.07;nan;100561.72;5092910;28;20115;-77
2021/05/25 08:21:01;;;;;;;0.95;0.60;;;;;;;10.13;nan;100558.47;5073039;28;20040;-76
2021/05/25 08:23:26;;;;;;;0.45;0.40;;;;;;;10.23;nan;100564.56;5080683;28;20024;-75
2021/05/25 08:25:52;;;;;;;1.95;0.50;;;;;;;10.02;nan;100548.97;5091649;28;20032;-76
2021/05/25 08:28:17;;;;;;;1.40;0.60;;;;;;;9.98;nan;100558.16;5073159;28;20041;-76
2021/05/25 08:30:44;;;;;;;1.17;0.60;;;;;;;10.02;nan;100574.56;5077105;28;20107;-76
2021/05/25 08:33:11;;;;;;;0.88;0.57;;;;;;;10.04;nan;100577.88;5092340;28;20039;-76
2021/05/25 08:35:37;;;;;;;1.55;0.60;;;;;;;9.98;nan;100588.03;5091562;28;20052;-76
2021/05/25 08:38:07;;;;;;;1.42;0.60;;;;;;;9.90;nan;100601.16;5092318;28;20293;-75
2021/05/25 08:40:34;;;;;;;1.35;0.57;;;;;;;9.90;nan;100597.69;5091586;28;20610;-76
2021/05/25 08:43:00;;;;;;;2.38;1.15;;;;;;;9.78;nan;100612.88;5092480;28;20413;-76
2021/05/25 08:45:27;;;;;;;0.90;0.60;;;;;;;9.70;nan;100618.91;5091953;28;20055;-77
2021/05/25 08:47:54;;;;;;;1.63;0.60;;;;;;;9.78;nan;100610.25;5091606;28;20036;-76
2021/05/25 08:50:25;;;;;;;1.13;0.70;;;;;;;9.71;nan;100617.06;5074499;28;20404;-77
2021/05/25 08:52:51;;;;;;;1.15;0.60;;;;;;;9.77;nan;100624.41;5091237;28;20032;-76
2021/05/25 08:55:16;;;;;;;2.78;0.73;;;;;;;9.71;nan;100625.00;5081764;28;20485;-77
2021/05/25 08:57:41;;;;;;;1.55;0.70;;;;;;;9.68;nan;100625.28;5071535;28;20040;-76
2021/05/25 09:00:09;;;;;;;2.00;0.60;;;;;;;9.61;nan;100632.13;5087818;28;20263;-77
2021/05/25 09:02:35;;;;;;;1.67;0.65;;;;;;;9.60;nan;100628.63;5087294;28;20497;-76
2021/05/25 09:05:18;;;;;;;3.95;1.08;;;;;;;9.55;nan;100634.34;5071795;28;20032;-76
2021/05/25 09:07:57;;;;;;;1.10;0.52;;;;;;;9.64;nan;100634.47;5070507;28;20067;-76
2021/05/25 09:10:59;;;;;;;1.45;0.60;;;;;;;9.67;nan;100644.75;5070054;28;20033;-76
2021/05/25 09:13:24;;;;;;;1.42;0.68;;;;;;;9.75;nan;100642.22;5073534;28;20110;-76
2021/05/25 09:15:51;;;;;;;1.58;0.90;;;;;;;9.81;nan;100632.88;5082326;28;20044;-76
2021/05/25 09:18:23;;;;;;;1.58;0.60;;;;;;;9.75;nan;100642.22;5053959;28;20370;-76
2021/05/25 09:20:52;;;;;;;1.08;0.63;;;;;;;9.83;nan;100644.16;5078770;28;20229;-76
2021/05/25 09:23:42;;;;;;;1.33;0.63;;;;;;;9.91;nan;100646.88;5071613;28;20502;-76
2021/05/25 09:26:25;;;;;;;1.92;0.75;;;;;;;9.88;nan;100637.44;5086526;28;20039;-75
2021/05/25 09:28:58;;;;;;;1.25;0.60;;;;;;;9.83;nan;100652.06;5065419;28;20584;-76
2021/05/25 09:31:47;;;;;;;1.20;0.60;;;;;;;9.79;nan;100649.69;5063485;28;20519;-76
2021/05/25 09:34:20;;;;;;;1.38;0.80;;;;;;;9.83;nan;100649.44;5074407;28;20064;-76
2021/05/25 09:36:59;;;;;;;2.35;0.85;;;;;;;9.86;nan;100636.75;5067923;28;20150;-78
2021/05/25 09:39:28;;;;;;;2.88;0.90;;;;;;;9.78;nan;100644.56;5078369;28;20054;-76
2021/05/25 09:42:01;;;;;;;0.88;0.60;;;;;;;9.62;nan;100639.88;5089957;28;20039;-75
2021/05/25 09:44:27;;;;;;;2.95;0.90;;;;;;;9.45;nan;100648.53;5071298;28;20118;-76
2021/05/25 09:46:53;;;;;;;2.00;1.00;;;;;;;9.31;nan;100658.53;5069407;28;20043;-77
2021/05/25 09:49:20;;;;;;;3.38;0.90;;;;;;;9.24;nan;100667.16;5050820;28;20037;-77
2021/05/25 09:51:46;;;;;;;2.78;0.98;;;;;;;9.18;nan;100668.56;5069341;28;20058;-77
2021/05/25 09:54:19;;;;;;;2.45;0.90;;;;;;;9.20;nan;100665.78;5070064;28;20028;-76
2021/05/25 09:56:56;;;;;;;1.55;0.80;;;;;;;9.25;nan;100663.56;5070144;28;20036;-76
2021/05/25 09:59:32;;;;;;;5.03;0.98;;;;;;;9.23;nan;100673.44;5071766;28;20094;-76
2021/05/25 10:02:32;;;;;;;1.60;0.75;;;;;;;9.32;nan;100676.06;5069095;28;20049;-76
2021/05/25 10:04:59;;;;;;;3.85;1.00;;;;;;;9.38;nan;100682.56;5027330;28;20160;-76
2021/05/25 10:07:26;;;;;;;4.50;1.27;;;;;;;9.41;nan;100679.66;5065591;28;20527;-76
2021/05/25 10:09:54;;;;;;;3.08;0.98;;;;;;;9.47;nan;100684.38;5068927;28;20047;-76
2021/05/25 10:12:20;;;;;;;2.08;0.82;;;;;;;9.51;nan;100685.78;5057920;28;20065;-76
2021/05/25 10:14:45;;;;;;;2.58;0.82;;;;;;;9.61;nan;100687.56;5081723;28;20066;-76
2021/05/25 10:17:19;;;;;;;2.00;0.70;;;;;;;9.70;nan;100689.34;5079595;28;20110;-77
2021/05/25 10:19:46;;;;;;;3.45;0.90;;;;;;;9.94;nan;100679.16;5069384;28;20047;-76
2021/05/25 10:22:11;;;;;;;2.47;0.80;;;;;;;10.24;nan;100689.59;5071876;28;20509;-76
2021/05/25 10:24:37;;;;;;;3.33;1.10;;;;;;;10.51;nan;100683.50;5089272;28;20121;-76
2021/05/25 10:27:02;;;;;;;1.80;0.80;;;;;;;10.71;nan;100677.13;5071314;28;20036;-75
2021/05/25 10:29:28;;;;;;;2.72;0.70;;;;;;;10.91;nan;100674.34;5089207;28;20066;-75
2021/05/25 10:32:00;;;;;;;2.42;0.90;;;;;;;11.16;nan;100692.13;5087626;28;20032;-76
2021/05/25 10:34:33;;;;;;;2.40;1.10;;;;;;;11.45;nan;100678.66;5088263;28;20042;-76
2021/05/25 10:37:02;;;;;;;1.95;0.85;;;;;;;11.66;nan;100680.13;5088645;28;20032;-76
2021/05/25 10:39:35;;;;;;;2.25;1.00;;;;;;;11.85;nan;100679.09;5085307;28;20507;-76
2021/05/25 10:42:22;;;;;;;1.83;0.68;;;;;;;11.86;nan;100678.91;5071596;28;20032;-76
2021/05/25 10:44:57;;;;;;;3.17;0.85;;;;;;;11.92;nan;100679.31;5089201;28;20066;-76
2021/05/25 10:47:26;;;;;;;2.55;0.90;;;;;;;11.92;nan;100677.50;5078962;28;20314;-76
2021/05/25 10:50:12;;;;;;;1.73;0.70;;;;;;;11.93;nan;100671.22;5067547;28;20036;-76
2021/05/25 10:52:38;;;;;;;4.65;0.90;;;;;;;11.79;nan;100671.75;5088192;28;20062;-77
2021/05/25 10:55:03;;;;;;;1.55;0.75;;;;;;;11.67;nan;100677.31;5075153;28;20067;-76
2021/05/25 10:57:30;;;;;;;1.45;0.70;;;;;;;11.57;nan;100676.59;5080399;28;20036;-76
2021/05/25 10:59:59;;;;;;;1.40;0.57;;;;;;;11.50;nan;100691.44;5073655;28;20428;-76
2021/05/25 11:02:50;;;;;;;1.48;0.75;;;;;;;11.44;nan;100687.59;5072762;28;20039;-76
2021/05/25 11:05:34;;;;;;;4.45;0.90;;;;;;;11.34;nan;100689.47;5075786;28;20717;-76
2021/05/25 11:08:08;;;;;;;3.83;1.10;;;;;;;11.27;nan;100693.72;5070267;28;20032;-76
2021/05/25 11:10:36;;;;;;;3.95;0.90;;;;;;;11.40;nan;100696.00;5074700;28;20025;-76
2021/05/25 11:13:23;;;;;;;2.55;0.85;;;;;;;11.49;nan;100695.06;5081241;28;20036;-76
2021/05/25 11:16:18;;;;;;;2.92;1.25;;;;;;;11.54;nan;100692.78;5093645;28;20061;-78
2021/05/25 11:19:07;;;;;;;1.85;0.90;;;;;;;11.51;nan;100703.66;5092350;28;20039;-76
2021/05/25 11:22:22;;;;;;;3.45;0.75;;;;;;;11.70;nan;100702.66;5091821;28;20105;-76
2021/05/25 11:24:35;;;;;;;;;;;;;;;11.73;nan;100707.66;5082789;28;20404;-75
2021/05/25 11:27:05;;;;;;;1.63;0.68;;;;;;;11.54;nan;100708.69;5088248;28;20388;-76
2021/05/25 11:29:55;;;;;;;1.17;0.50;;;;;;;11.73;nan;100712.97;5079758;28;20051;-76
2021/05/25 11:32:22;;;;;;;0.90;0.50;;;;;;;12.02;nan;100703.91;5071127;28;20653;-76
2021/05/25 11:35:34;;;;;;;2.10;0.60;;;;;;;12.24;nan;100719.25;5093276;28;20044;-78
2021/05/25 11:38:03;;;;;;;1.02;0.47;;;;;;;12.41;nan;100722.81;5070730;28;20043;-76
2021/05/25 11:40:28;;;;;;;2.60;0.80;;;;;;;12.41;nan;100728.13;5087969;28;20032;-76
2021/05/25 11:42:55;;;;;;;2.40;1.20;;;;;;;12.56;nan;100730.16;5087807;28;20562;-77
2021/05/25 11:45:24;;;;;;;2.95;0.90;;;;;;;12.65;nan;100718.59;5088184;28;20525;-77
2021/05/25 11:47:54;;;;;;;2.63;1.05;;;;;;;12.65;nan;100718.59;5093306;28;20115;-76
2021/05/25 11:50:19;;;;;;;1.75;0.60;;;;;;;12.47;nan;100730.16;5042909;28;20044;-77
2021/05/25 11:52:51;;;;;;;2.13;0.80;;;;;;;12.50;nan;100727.16;5092306;28;20051;-76
2021/05/25 11:55:16;;;;;;;1.88;0.70;;;;;;;12.70;nan;100733.06;5093660;28;20038;-77